createdAt,value
2023-04-16T00:01:55.919Z,85.19
2023-04-16T00:04:40.108Z,85.44
2023-04-16T00:07:14.045Z,85.48
2023-04-16T00:09:51.332Z,85.53
2023-04-16T00:12:34.764Z,85.63
2023-04-16T00:14:58.248Z,85.40
2023-04-16T00:17:25.314Z,85.63
2023-04-16T00:19:59.083Z,85.86
2023-04-16T00:22:35.455Z,85.79
2023-04-16T00:25:10.401Z,85.76
2023-04-16T00:27:34.051Z,85.83
2023-04-16T00:30:08.952Z,85.99
2023-04-16T00:32:51.652Z,86.15
2023-04-16T00:35:19.130Z,86.10
2023-04-16T00:37:54.496Z,86.26
2023-04-16T00:40:38.231Z,86.46
2023-04-16T00:43:02.316Z,86.65
2023-04-16T00:45:31.919Z,86.57
2023-04-16T00:48:05.953Z,86.63
2023-04-16T00:50:38.890Z,86.43
2023-04-16T00:53:22.351Z,86.60
2023-04-16T00:55:57.439Z,86.37
2023-04-16T00:58:31.538Z,86.35
2023-04-16T01:00:55.881Z,86.16
2023-04-16T01:03:42.914Z,86.08
2023-04-16T01:06:07.250Z,86.10
2023-04-16T01:08:30.961Z,86.01
2023-04-16T01:11:15.754Z,85.83
2023-04-16T01:13:42.211Z,85.79
2023-04-16T01:16:12.162Z,85.56
2023-04-16T01:18:49.881Z,85.40
2023-04-16T01:21:33.455Z,85.34
2023-04-16T01:24:05.470Z,84.99
2023-04-16T01:26:36.488Z,84.78
2023-04-16T01:29:20.558Z,84.93
2023-04-16T01:32:05.949Z,84.87
2023-04-16T01:34:43.975Z,84.92
2023-04-16T01:37:28.233Z,84.89
2023-04-16T01:40:09.299Z,85.00
2023-04-16T01:42:32.764Z,85.06
2023-04-16T01:44:56.607Z,84.93
2023-04-16T01:47:20.277Z,84.92
2023-04-16T01:49:45.028Z,84.91
2023-04-16T01:52:08.446Z,85.03
2023-04-16T01:54:32.211Z,84.99
2023-04-16T01:57:06.356Z,84.85
2023-04-16T01:59:50.470Z,84.74
2023-04-16T02:02:35.544Z,84.53
2023-04-16T02:05:19.836Z,84.75
2023-04-16T02:07:54.837Z,84.70
2023-04-16T02:10:18.368Z,84.76
2023-04-16T02:12:51.426Z,84.93
2023-04-16T02:15:15.916Z,84.88
2023-04-16T02:17:39.854Z,84.82
2023-04-16T02:20:10.288Z,84.90
2023-04-16T02:22:48.777Z,84.99
2023-04-16T02:25:16.707Z,84.97
2023-04-16T02:27:40.570Z,85.14
2023-04-16T02:30:17.931Z,85.20
2023-04-16T02:32:43.213Z,85.41
2023-04-16T02:35:10.326Z,85.45
2023-04-16T02:37:36.752Z,85.58
2023-04-16T02:40:14.562Z,85.70
2023-04-16T02:42:49.636Z,85.62
2023-04-16T02:45:13.867Z,85.96
2023-04-16T02:47:37.533Z,85.99
2023-04-16T02:50:07.989Z,86.20
2023-04-16T02:52:42.893Z,86.46
2023-04-16T02:55:27.890Z,86.61
2023-04-16T02:57:53.720Z,86.62
2023-04-16T03:00:17.937Z,86.77
2023-04-16T03:02:50.743Z,86.86
2023-04-16T03:05:14.627Z,86.80
2023-04-16T03:07:50.023Z,86.92
2023-04-16T03:10:35.606Z,86.96
2023-04-16T03:13:02.227Z,86.96
2023-04-16T03:15:39.464Z,87.50
2023-04-16T03:18:17.016Z,87.63
2023-04-16T03:20:41.299Z,87.61
2023-04-16T03:23:25.777Z,88.17
2023-04-16T03:25:58.722Z,88.33
2023-04-16T03:28:42.436Z,88.20
2023-04-16T03:31:26.740Z,88.29
2023-04-16T03:33:55.987Z,88.81
2023-04-16T03:36:19.480Z,88.79
2023-04-16T03:38:50.596Z,88.70
2023-04-16T03:41:19.495Z,89.13
2023-04-16T03:43:54.876Z,89.32
2023-04-16T03:46:18.837Z,88.91
2023-04-16T03:48:45.490Z,89.50
2023-04-16T03:51:09.567Z,89.50
2023-04-16T03:53:33.610Z,89.79
2023-04-16T03:56:00.117Z,89.67
2023-04-16T03:58:24.477Z,89.75
2023-04-16T04:00:48.320Z,89.92
2023-04-16T04:03:12.709Z,89.90
2023-04-16T04:05:38.914Z,90.06
2023-04-16T04:08:02.600Z,89.68
2023-04-16T04:10:27.263Z,89.71
2023-04-16T04:12:54.009Z,89.63
2023-04-16T04:15:17.705Z,89.83
2023-04-16T04:17:41.290Z,89.53
2023-04-16T04:20:25.561Z,89.43
2023-04-16T04:23:09.251Z,89.12
2023-04-16T04:25:35.972Z,89.08
2023-04-16T04:28:19.818Z,89.25
2023-04-16T04:30:55.892Z,89.16
2023-04-16T04:33:40.033Z,89.18
2023-04-16T04:36:07.195Z,88.96
2023-04-16T04:38:50.911Z,88.78
2023-04-16T04:41:29.223Z,88.52
2023-04-16T04:43:53.405Z,88.47
2023-04-16T04:46:17.109Z,88.48
2023-04-16T04:48:41.201Z,88.41
2023-04-16T04:51:05.644Z,88.40
2023-04-16T04:53:29.179Z,88.33
2023-04-16T04:55:55.629Z,88.04
2023-04-16T04:58:33.287Z,87.84
2023-04-16T05:01:06.591Z,87.65
2023-04-16T05:03:33.762Z,87.42
2023-04-16T05:06:18.142Z,87.25
2023-04-16T05:09:01.880Z,87.23
2023-04-16T05:11:46.129Z,86.96
2023-04-16T05:14:09.649Z,86.84
2023-04-16T05:16:35.912Z,86.65
2023-04-16T05:18:58.709Z,86.48
2023-04-16T05:21:22.247Z,86.36
2023-04-16T05:23:45.872Z,86.08
2023-04-16T05:26:09.505Z,85.97
2023-04-16T05:28:45.944Z,85.90
2023-04-16T05:31:12.943Z,85.72
2023-04-16T05:33:57.012Z,85.78
2023-04-16T05:36:41.289Z,85.67
2023-04-16T05:39:25.063Z,85.60
2023-04-16T05:41:54.329Z,85.33
2023-04-16T05:44:20.860Z,85.17
2023-04-16T05:46:53.539Z,85.11
2023-04-16T05:49:28.678Z,85.07
2023-04-16T05:52:12.554Z,85.05
2023-04-16T05:54:57.600Z,84.55
2023-04-16T05:57:32.857Z,84.27
2023-04-16T06:00:17.689Z,84.05
2023-04-16T06:02:46.884Z,83.73
2023-04-16T06:05:22.370Z,83.17
2023-04-16T06:08:06.624Z,82.70
2023-04-16T06:10:35.294Z,82.59
2023-04-16T06:13:01.839Z,82.62
2023-04-16T06:15:46.233Z,82.39
2023-04-16T06:18:30.124Z,82.39
2023-04-16T06:21:13.327Z,82.27
2023-04-16T06:23:57.042Z,81.86
2023-04-16T06:26:21.207Z,82.00
2023-04-16T06:28:48.102Z,82.11
2023-04-16T06:31:32.248Z,82.12
2023-04-16T06:34:16.804Z,82.13
2023-04-16T06:36:40.897Z,82.10
2023-04-16T06:39:06.039Z,82.15
2023-04-16T06:41:39.997Z,82.15
2023-04-16T06:44:18.725Z,81.81
2023-04-16T06:47:02.979Z,81.80
2023-04-16T06:49:29.024Z,81.70
2023-04-16T06:52:13.094Z,81.39
2023-04-16T06:54:42.884Z,81.22
2023-04-16T06:57:10.570Z,81.35
2023-04-16T06:59:54.950Z,81.42
2023-04-16T07:02:18.921Z,81.41
2023-04-16T07:04:48.246Z,81.06
2023-04-16T07:07:12.019Z,80.72
2023-04-16T07:09:44.621Z,80.33
2023-04-16T07:12:29.150Z,80.11
2023-04-16T07:15:13.006Z,79.72
2023-04-16T07:17:57.423Z,79.45
2023-04-16T07:20:28.603Z,79.49
2023-04-16T07:22:52.268Z,79.30
2023-04-16T07:25:25.247Z,78.99
2023-04-16T07:28:00.091Z,78.59
2023-04-16T07:30:33.846Z,78.54
2023-04-16T07:33:08.745Z,78.59
2023-04-16T07:35:36.084Z,78.34
2023-04-16T07:38:08.652Z,78.17
2023-04-16T07:40:45.448Z,77.80
2023-04-16T07:43:09.361Z,77.52
2023-04-16T07:45:32.899Z,77.30
2023-04-16T07:47:57.003Z,77.14
2023-04-16T07:50:43.008Z,76.74
2023-04-16T07:53:07.325Z,76.79
2023-04-16T07:55:51.132Z,76.80
2023-04-16T07:58:15.318Z,76.72
2023-04-16T08:00:50.783Z,76.83
2023-04-16T08:03:17.880Z,76.78
2023-04-16T08:05:52.744Z,77.09
2023-04-16T08:08:20.110Z,76.86
2023-04-16T08:10:55.361Z,76.82
2023-04-16T08:13:31.758Z,76.87
2023-04-16T08:15:56.783Z,76.72
2023-04-16T08:18:20.507Z,76.75
2023-04-16T08:20:57.175Z,76.68
2023-04-16T08:23:24.228Z,76.78
2023-04-16T08:26:08.170Z,76.80
2023-04-16T08:28:41.774Z,76.78
2023-04-16T08:31:05.803Z,76.69
2023-04-16T08:33:29.665Z,76.77
2023-04-16T08:36:13.365Z,76.73
2023-04-16T08:38:37.012Z,76.35
2023-04-16T08:41:05.385Z,76.27
2023-04-16T08:43:50.889Z,76.45
2023-04-16T08:46:16.805Z,76.50
2023-04-16T08:48:44.175Z,76.68
2023-04-16T08:51:10.745Z,76.61
2023-04-16T08:53:48.302Z,76.64
2023-04-16T08:56:13.145Z,76.11
2023-04-16T08:58:40.459Z,76.04
2023-04-16T09:01:04.833Z,75.93
2023-04-16T09:03:29.530Z,75.61
2023-04-16T09:05:54.991Z,75.60
2023-04-16T09:08:19.559Z,75.41
2023-04-16T09:10:43.956Z,75.15
2023-04-16T09:13:08.775Z,74.84
2023-04-16T09:15:35.146Z,74.20
2023-04-16T09:18:01.909Z,73.15
2023-04-16T09:20:25.956Z,72.56
2023-04-16T09:22:51.977Z,72.42
2023-04-16T09:25:16.195Z,72.43
2023-04-16T09:27:43.741Z,72.41
2023-04-16T09:30:21.879Z,72.12
2023-04-16T09:32:45.412Z,71.96
2023-04-16T09:35:09.703Z,71.77
2023-04-16T09:37:33.974Z,71.67
2023-04-16T09:39:59.492Z,71.63
2023-04-16T09:42:24.870Z,71.59
2023-04-16T09:44:51.774Z,71.55
2023-04-16T09:47:15.496Z,71.44
2023-04-16T09:50:00.151Z,71.24
2023-04-16T09:52:26.067Z,71.22
2023-04-16T09:54:51.583Z,71.41
2023-04-16T09:57:17.974Z,71.40
2023-04-16T09:59:40.712Z,71.29
2023-04-16T10:02:14.632Z,70.89
2023-04-16T10:04:47.867Z,70.60
2023-04-16T10:07:22.179Z,70.02
2023-04-16T10:09:49.364Z,69.75
2023-04-16T10:12:15.586Z,69.35
2023-04-16T10:14:39.825Z,69.58
2023-04-16T10:17:24.312Z,69.40
2023-04-16T10:20:09.751Z,69.09
2023-04-16T10:22:45.956Z,68.84
2023-04-16T10:25:13.896Z,68.69
2023-04-16T10:27:41.376Z,68.72
2023-04-16T10:30:27.057Z,68.84
2023-04-16T10:32:53.352Z,68.87
2023-04-16T10:35:20.251Z,68.76
2023-04-16T10:37:44.848Z,68.83
2023-04-16T10:40:24.791Z,68.61
2023-04-16T10:42:55.608Z,68.54
2023-04-16T10:45:27.240Z,68.34
2023-04-16T10:47:50.818Z,68.33
2023-04-16T10:50:17.181Z,67.64
2023-04-16T10:52:40.879Z,67.32
2023-04-16T10:55:05.850Z,67.01
2023-04-16T10:57:30.509Z,66.86
2023-04-16T10:59:55.620Z,66.59
2023-04-16T11:02:29.627Z,66.45
2023-04-16T11:04:57.717Z,65.63
2023-04-16T11:07:31.144Z,65.38
2023-04-16T11:09:57.019Z,65.21
2023-04-16T11:12:22.227Z,64.91
2023-04-16T11:14:48.715Z,64.84
2023-04-16T11:17:12.322Z,64.42
2023-04-16T11:19:39.153Z,64.17
2023-04-16T11:22:03.407Z,64.17
2023-04-16T11:24:30.673Z,63.64
2023-04-16T11:26:54.092Z,62.90
2023-04-16T11:29:17.893Z,62.85
2023-04-16T11:31:41.560Z,63.18
2023-04-16T11:34:08.205Z,63.52
2023-04-16T11:36:52.746Z,63.11
2023-04-16T11:39:16.337Z,63.11
2023-04-16T11:41:43.964Z,63.04
2023-04-16T11:44:19.415Z,63.11
2023-04-16T11:46:53.206Z,62.96
2023-04-16T11:49:17.039Z,62.77
2023-04-16T11:51:41.232Z,62.83
2023-04-16T11:54:06.288Z,62.83
2023-04-16T11:56:35.190Z,62.60
2023-04-16T11:59:09.198Z,62.35
2023-04-16T12:01:34.182Z,62.22
2023-04-16T12:04:02.702Z,62.03
2023-04-16T12:06:27.029Z,61.93
2023-04-16T12:08:50.779Z,61.82
2023-04-16T12:11:14.309Z,61.94
2023-04-16T12:13:39.265Z,61.84
2023-04-16T12:16:03.356Z,61.71
2023-04-16T12:18:27.153Z,61.08
2023-04-16T12:20:51.209Z,59.37
2023-04-16T12:23:24.647Z,58.52
2023-04-16T12:25:49.461Z,57.79
2023-04-16T12:28:13.377Z,57.67
2023-04-16T12:30:50.260Z,57.38
2023-04-16T12:33:18.478Z,57.00
2023-04-16T12:35:44.241Z,56.61
2023-04-16T12:38:08.040Z,56.30
2023-04-16T12:40:31.698Z,56.81
2023-04-16T12:42:55.197Z,56.37
2023-04-16T12:45:18.752Z,56.30
2023-04-16T12:47:42.315Z,55.66
2023-04-16T12:50:07.429Z,54.88
2023-04-16T12:52:30.903Z,54.67
2023-04-16T12:54:54.624Z,54.49
2023-04-16T12:57:18.084Z,53.83
2023-04-16T12:59:41.770Z,53.41
2023-04-16T13:02:05.680Z,53.13
2023-04-16T13:04:29.838Z,53.63
2023-04-16T13:06:53.385Z,54.15
2023-04-16T13:09:18.764Z,53.20
2023-04-16T13:11:42.329Z,52.75
2023-04-16T13:14:05.750Z,52.67
2023-04-16T13:16:29.500Z,52.72
2023-04-16T13:18:53.162Z,52.25
2023-04-16T13:21:16.674Z,52.07
2023-04-16T13:23:40.386Z,52.24
2023-04-16T13:26:04.431Z,51.83
2023-04-16T13:28:28.193Z,52.28
2023-04-16T13:30:52.095Z,52.02
2023-04-16T13:33:15.763Z,52.28
2023-04-16T13:35:39.334Z,52.36
2023-04-16T13:38:03.072Z,52.45
2023-04-16T13:40:26.689Z,52.49
2023-04-16T13:42:50.750Z,52.66
2023-04-16T13:45:14.617Z,52.78
2023-04-16T13:47:41.515Z,52.54
2023-04-16T13:50:06.736Z,52.55
2023-04-16T13:52:30.510Z,52.55
2023-04-16T13:54:53.995Z,52.76
2023-04-16T13:57:17.788Z,52.94
2023-04-16T13:59:41.639Z,53.26
2023-04-16T14:02:05.461Z,53.76
2023-04-16T14:04:31.526Z,54.37
2023-04-16T14:06:55.611Z,54.40
2023-04-16T14:09:19.254Z,53.78
2023-04-16T14:11:43.235Z,54.09
2023-04-16T14:14:06.724Z,53.85
2023-04-16T14:16:30.419Z,53.92
2023-04-16T14:19:02.024Z,53.84
2023-04-16T14:21:26.545Z,53.85
2023-04-16T14:23:50.704Z,53.89
2023-04-16T14:26:14.147Z,53.76
2023-04-16T14:28:38.763Z,53.59
2023-04-16T14:31:04.858Z,53.17
2023-04-16T14:33:28.440Z,53.05
2023-04-16T14:35:51.932Z,52.92
2023-04-16T14:38:15.728Z,52.23
2023-04-16T14:40:48.357Z,52.75
2023-04-16T14:43:12.121Z,52.73
2023-04-16T14:45:49.456Z,52.73
2023-04-16T14:48:12.962Z,53.02
2023-04-16T14:50:37.358Z,53.20
2023-04-16T14:53:01.540Z,53.24
2023-04-16T14:55:25.144Z,52.97
2023-04-16T14:57:48.775Z,52.99
2023-04-16T15:00:18.118Z,53.37
2023-04-16T15:02:41.969Z,53.43
2023-04-16T15:05:09.161Z,53.49
2023-04-16T15:07:33.077Z,53.64
2023-04-16T15:09:56.756Z,54.02
2023-04-16T15:12:20.348Z,54.20
2023-04-16T15:14:43.803Z,54.18
2023-04-16T15:17:07.821Z,54.40
2023-04-16T15:19:31.372Z,54.39
2023-04-16T15:21:55.445Z,54.39
2023-04-16T15:24:18.999Z,54.37
2023-04-16T15:26:42.742Z,54.54
2023-04-16T15:29:06.817Z,54.88
2023-04-16T15:31:30.584Z,55.04
2023-04-16T15:33:55.686Z,55.27
2023-04-16T15:36:19.374Z,55.46
2023-04-16T15:38:42.852Z,55.68
2023-04-16T15:41:06.493Z,55.91
2023-04-16T15:43:30.177Z,56.08
2023-04-16T15:45:53.988Z,56.27
2023-04-16T15:48:17.612Z,56.56
2023-04-16T15:50:41.453Z,56.86
2023-04-16T15:53:08.576Z,57.04
2023-04-16T15:55:32.130Z,57.18
2023-04-16T15:57:56.178Z,57.29
2023-04-16T16:00:20.865Z,57.56
2023-04-16T16:02:46.216Z,57.58
2023-04-16T16:05:11.752Z,57.56
2023-04-16T16:07:36.879Z,57.68
2023-04-16T16:10:00.519Z,57.80
2023-04-16T16:12:24.294Z,58.04
2023-04-16T16:14:48.717Z,58.12
2023-04-16T16:17:15.451Z,58.44
2023-04-16T16:19:39.216Z,58.53
2023-04-16T16:22:03.050Z,58.54
2023-04-16T16:24:27.703Z,58.61
2023-04-16T16:27:01.012Z,58.88
2023-04-16T16:29:25.021Z,59.00
2023-04-16T16:31:48.650Z,59.18
2023-04-16T16:34:21.398Z,59.08
2023-04-16T16:36:47.269Z,59.26
2023-04-16T16:39:11.683Z,59.42
2023-04-16T16:41:41.258Z,59.70
2023-04-16T16:44:05.802Z,60.08
2023-04-16T16:46:29.208Z,60.33
2023-04-16T16:48:52.854Z,60.40
2023-04-16T16:51:18.616Z,60.50
2023-04-16T16:53:42.419Z,60.59
2023-04-16T16:56:06.541Z,60.66
2023-04-16T16:58:30.070Z,60.97
2023-04-16T17:00:53.591Z,61.19
2023-04-16T17:03:17.493Z,61.33
2023-04-16T17:05:41.180Z,61.51
2023-04-16T17:08:06.009Z,61.64
2023-04-16T17:10:29.858Z,61.78
2023-04-16T17:12:53.595Z,61.94
2023-04-16T17:15:21.641Z,62.20
2023-04-16T17:17:45.952Z,62.33
2023-04-16T17:20:11.996Z,62.46
2023-04-16T17:22:36.177Z,62.75
2023-04-16T17:25:10.165Z,62.82
2023-04-16T17:27:38.977Z,63.05
2023-04-16T17:30:08.134Z,63.28
2023-04-16T17:32:32.285Z,63.45
2023-04-16T17:34:56.706Z,63.72
2023-04-16T17:37:20.203Z,63.94
2023-04-16T17:39:43.878Z,64.19
2023-04-16T17:42:07.850Z,64.45
2023-04-16T17:44:31.929Z,64.62
2023-04-16T17:46:56.824Z,64.83
2023-04-16T17:49:20.579Z,65.12
2023-04-16T17:51:44.269Z,65.20
2023-04-16T17:54:08.990Z,65.50
2023-04-16T17:56:32.945Z,65.59
2023-04-16T17:58:56.907Z,65.88
2023-04-16T18:01:41.491Z,66.20
2023-04-16T18:04:05.402Z,66.18
2023-04-16T18:06:31.585Z,66.41
2023-04-16T18:09:05.156Z,66.56
2023-04-16T18:11:31.042Z,66.86
2023-04-16T18:13:54.765Z,66.98
2023-04-16T18:16:18.592Z,67.20
2023-04-16T18:18:44.675Z,67.37
2023-04-16T18:21:11.691Z,67.59
2023-04-16T18:23:38.200Z,67.61
2023-04-16T18:26:22.941Z,67.85
2023-04-16T18:28:50.572Z,68.05
2023-04-16T18:31:20.673Z,68.23
2023-04-16T18:33:56.714Z,68.45
2023-04-16T18:36:35.056Z,68.65
2023-04-16T18:39:19.190Z,68.84
2023-04-16T18:41:47.024Z,68.85
2023-04-16T18:44:10.655Z,69.08
2023-04-16T18:46:34.447Z,69.32
2023-04-16T18:49:01.000Z,69.43
2023-04-16T18:51:24.667Z,69.53
2023-04-16T18:53:48.272Z,69.67
2023-04-16T18:56:12.430Z,69.77
2023-04-16T18:58:36.104Z,69.97
2023-04-16T19:01:00.050Z,69.98
2023-04-16T19:03:27.528Z,70.20
2023-04-16T19:05:52.271Z,70.38
2023-04-16T19:08:15.718Z,70.43
2023-04-16T19:10:39.505Z,70.65
2023-04-16T19:13:06.330Z,70.81
2023-04-16T19:15:31.640Z,70.89
2023-04-16T19:17:59.655Z,71.07
2023-04-16T19:20:23.277Z,71.26
2023-04-16T19:22:46.773Z,71.43
2023-04-16T19:25:13.191Z,71.64
2023-04-16T19:27:36.593Z,71.79
2023-04-16T19:30:00.427Z,72.02
2023-04-16T19:32:44.543Z,72.17
2023-04-16T19:35:29.626Z,72.40
2023-04-16T19:38:13.753Z,72.57
2023-04-16T19:40:37.697Z,72.69
2023-04-16T19:43:01.329Z,72.92
2023-04-16T19:45:46.379Z,73.14
2023-04-16T19:48:10.709Z,73.36
2023-04-16T19:50:34.356Z,73.45
2023-04-16T19:53:18.350Z,73.70
2023-04-16T19:55:52.160Z,73.75
2023-04-16T19:58:19.339Z,73.89
2023-04-16T20:01:05.640Z,74.03
2023-04-16T20:03:29.403Z,74.12
2023-04-16T20:05:56.047Z,74.31
2023-04-16T20:08:31.432Z,74.49
2023-04-16T20:10:57.517Z,74.64
2023-04-16T20:13:21.184Z,74.78
2023-04-16T20:15:45.033Z,74.90
2023-04-16T20:18:12.408Z,75.11
2023-04-16T20:20:36.440Z,75.19
2023-04-16T20:23:00.603Z,75.35
2023-04-16T20:25:25.612Z,75.48
2023-04-16T20:27:49.234Z,75.55
2023-04-16T20:30:14.875Z,75.82
2023-04-16T20:32:58.586Z,75.89
2023-04-16T20:35:25.561Z,76.03
2023-04-16T20:38:00.675Z,76.14
2023-04-16T20:40:30.050Z,76.27
2023-04-16T20:43:01.018Z,76.36
2023-04-16T20:45:24.923Z,76.60
2023-04-16T20:47:48.404Z,76.65
2023-04-16T20:50:32.536Z,76.83
2023-04-16T20:52:58.849Z,76.90
2023-04-16T20:55:25.000Z,76.93
2023-04-16T20:57:48.721Z,77.04
2023-04-16T21:00:31.147Z,77.18
2023-04-16T21:02:55.220Z,77.38
2023-04-16T21:05:20.732Z,77.52
2023-04-16T21:07:44.221Z,77.66
2023-04-16T21:10:10.569Z,77.73
2023-04-16T21:12:33.987Z,77.89
2023-04-16T21:14:57.616Z,77.98
2023-04-16T21:17:21.545Z,78.21
2023-04-16T21:19:45.074Z,78.35
2023-04-16T21:22:08.771Z,78.36
2023-04-16T21:24:32.872Z,78.45
2023-04-16T21:26:56.795Z,78.62
2023-04-16T21:29:26.235Z,78.71
2023-04-16T21:31:50.380Z,78.91
2023-04-16T21:34:15.594Z,79.07
2023-04-16T21:36:59.727Z,79.18
2023-04-16T21:39:43.597Z,79.32
2023-04-16T21:42:27.501Z,79.41
2023-04-16T21:45:13.813Z,79.44
2023-04-16T21:47:57.815Z,79.52
2023-04-16T21:50:41.942Z,79.71
2023-04-16T21:53:17.850Z,79.60
2023-04-16T21:55:41.643Z,79.57
2023-04-16T21:58:25.578Z,79.66
2023-04-16T22:01:10.952Z,79.67
2023-04-16T22:03:39.599Z,79.69
2023-04-16T22:06:03.665Z,79.77
2023-04-16T22:08:27.321Z,79.80
2023-04-16T22:10:51.637Z,79.70
2023-04-16T22:13:17.312Z,79.88
2023-04-16T22:15:41.682Z,79.93
2023-04-16T22:18:15.104Z,79.95
2023-04-16T22:20:59.313Z,80.02
2023-04-16T22:23:36.808Z,80.08
2023-04-16T22:26:12.187Z,80.16
2023-04-16T22:28:36.255Z,80.22
2023-04-16T22:31:20.359Z,80.18
2023-04-16T22:33:53.187Z,80.37
2023-04-16T22:36:16.839Z,80.19
2023-04-16T22:38:43.493Z,80.34
2023-04-16T22:41:11.500Z,80.41
2023-04-16T22:43:38.415Z,80.54
2023-04-16T22:46:04.125Z,80.57
2023-04-16T22:48:35.539Z,80.65
2023-04-16T22:51:02.418Z,80.58
2023-04-16T22:53:26.099Z,80.72
2023-04-16T22:56:02.397Z,80.79
2023-04-16T22:58:48.448Z,80.80
2023-04-16T23:01:33.233Z,80.94
2023-04-16T23:04:15.557Z,81.04
2023-04-16T23:06:59.731Z,81.23
2023-04-16T23:09:25.384Z,81.30
2023-04-16T23:11:57.474Z,81.46
2023-04-16T23:14:25.928Z,81.49
2023-04-16T23:16:52.421Z,81.56
2023-04-16T23:19:36.917Z,81.68
2023-04-16T23:22:20.703Z,81.83
2023-04-16T23:24:57.134Z,81.84
2023-04-16T23:27:20.696Z,81.82
2023-04-16T23:29:53.165Z,81.90
2023-04-16T23:32:31.454Z,82.04
2023-04-16T23:34:58.595Z,82.00
2023-04-16T23:37:24.038Z,81.92
2023-04-16T23:39:51.540Z,82.04
2023-04-16T23:42:24.387Z,82.11
2023-04-16T23:44:47.750Z,81.97
2023-04-16T23:47:14.283Z,81.94
2023-04-16T23:49:39.894Z,81.92
2023-04-16T23:52:06.984Z,81.93
2023-04-16T23:54:30.830Z,81.97
2023-04-16T23:57:03.206Z,81.79
2023-04-16T23:59:26.795Z,81.76
